sensor_id;sensor_type;location;lat;lon;timestamp;pressure;altitude;pressure_sealevel;temperature;humidity
46682;BME280;34101;53.430;-2.224;2023-04-25T00:01:02;101311.40;;;7.89;53.44
46682;BME280;34101;53.430;-2.224;2023-04-25T00:03:30;101312.98;;;7.74;53.85
46682;BME280;34101;53.430;-2.224;2023-04-25T00:05:58;101311.84;;;7.65;54.36
46682;BME280;34101;53.430;-2.224;2023-04-25T00:08:25;101315.22;;;7.59;54.64
46682;BME280;34101;53.430;-2.224;2023-04-25T00:10:52;101316.07;;;7.53;55.14
46682;BME280;34101;53.430;-2.224;2023-04-25T00:13:20;101319.91;;;7.48;54.50
46682;BME280;34101;53.430;-2.224;2023-04-25T00:15:47;101315.78;;;7.43;54.18
46682;BME280;34101;53.430;-2.224;2023-04-25T00:18:15;101314.24;;;7.40;53.99
46682;BME280;34101;53.430;-2.224;2023-04-25T00:20:42;101313.55;;;7.34;53.64
46682;BME280;34101;53.430;-2.224;2023-04-25T00:23:10;101312.89;;;7.30;53.81
46682;BME280;34101;53.430;-2.224;2023-04-25T00:25:37;101313.96;;;7.28;53.51
46682;BME280;34101;53.430;-2.224;2023-04-25T00:28:09;101315.82;;;7.21;53.61
46682;BME280;34101;53.430;-2.224;2023-04-25T00:30:38;101317.14;;;7.16;53.78
46682;BME280;34101;53.430;-2.224;2023-04-25T00:33:05;101319.44;;;7.13;53.80
46682;BME280;34101;53.430;-2.224;2023-04-25T00:35:33;101317.94;;;7.09;53.92
46682;BME280;34101;53.430;-2.224;2023-04-25T00:38:01;101319.02;;;7.07;53.92
46682;BME280;34101;53.430;-2.224;2023-04-25T00:40:28;101316.11;;;7.02;54.11
46682;BME280;34101;53.430;-2.224;2023-04-25T00:42:55;101316.73;;;6.99;54.16
46682;BME280;34101;53.430;-2.224;2023-04-25T00:45:27;101315.89;;;6.96;54.33
46682;BME280;34101;53.430;-2.224;2023-04-25T00:47:56;101313.32;;;6.93;54.53
46682;BME280;34101;53.430;-2.224;2023-04-25T00:50:23;101310.22;;;6.89;54.89
46682;BME280;34101;53.430;-2.224;2023-04-25T00:52:50;101312.32;;;6.85;54.83
46682;BME280;34101;53.430;-2.224;2023-04-25T00:55:18;101312.58;;;6.83;54.73
46682;BME280;34101;53.430;-2.224;2023-04-25T00:57:47;101314.31;;;6.75;54.89
46682;BME280;34101;53.430;-2.224;2023-04-25T01:00:16;101315.10;;;6.65;55.05
46682;BME280;34101;53.430;-2.224;2023-04-25T01:02:44;101314.58;;;6.55;55.32
46682;BME280;34101;53.430;-2.224;2023-04-25T01:05:12;101314.95;;;6.46;55.66
46682;BME280;34101;53.430;-2.224;2023-04-25T01:07:40;101314.44;;;6.40;55.92
46682;BME280;34101;53.430;-2.224;2023-04-25T01:10:09;101317.31;;;6.37;56.11
46682;BME280;34101;53.430;-2.224;2023-04-25T01:12:36;101319.58;;;6.28;56.60
46682;BME280;34101;53.430;-2.224;2023-04-25T01:15:05;101320.97;;;6.27;56.83
46682;BME280;34101;53.430;-2.224;2023-04-25T01:17:34;101323.51;;;6.23;56.92
46682;BME280;34101;53.430;-2.224;2023-04-25T01:20:03;101321.27;;;6.17;57.12
46682;BME280;34101;53.430;-2.224;2023-04-25T01:22:31;101319.83;;;6.11;57.30
46682;BME280;34101;53.430;-2.224;2023-04-25T01:24:59;101319.99;;;6.01;57.71
46682;BME280;34101;53.430;-2.224;2023-04-25T01:27:27;101322.38;;;5.94;58.11
46682;BME280;34101;53.430;-2.224;2023-04-25T01:29:56;101326.25;;;5.93;58.22
46682;BME280;34101;53.430;-2.224;2023-04-25T01:32:24;101325.35;;;5.93;58.34
46682;BME280;34101;53.430;-2.224;2023-04-25T01:34:51;101324.44;;;5.94;58.26
46682;BME280;34101;53.430;-2.224;2023-04-25T01:37:19;101321.97;;;5.90;58.42
46682;BME280;34101;53.430;-2.224;2023-04-25T01:39:47;101321.54;;;5.90;58.48
46682;BME280;34101;53.430;-2.224;2023-04-25T01:42:14;101322.11;;;5.90;58.62
46682;BME280;34101;53.430;-2.224;2023-04-25T01:44:42;101331.04;;;5.86;58.62
46682;BME280;34101;53.430;-2.224;2023-04-25T01:47:09;101331.44;;;5.77;58.78
46682;BME280;34101;53.430;-2.224;2023-04-25T01:49:36;101332.23;;;5.75;58.76
46682;BME280;34101;53.430;-2.224;2023-04-25T01:52:05;101331.19;;;5.71;58.83
46682;BME280;34101;53.430;-2.224;2023-04-25T01:54:33;101333.04;;;5.71;58.86
46682;BME280;34101;53.430;-2.224;2023-04-25T01:57:01;101332.06;;;5.67;59.18
46682;BME280;34101;53.430;-2.224;2023-04-25T01:59:28;101331.28;;;5.65;59.26
46682;BME280;34101;53.430;-2.224;2023-04-25T02:01:56;101331.83;;;5.61;59.27
46682;BME280;34101;53.430;-2.224;2023-04-25T02:04:24;101334.00;;;5.50;59.74
46682;BME280;34101;53.430;-2.224;2023-04-25T02:06:51;101336.70;;;5.44;59.82
46682;BME280;34101;53.430;-2.224;2023-04-25T02:09:19;101346.02;;;5.33;60.15
46682;BME280;34101;53.430;-2.224;2023-04-25T02:11:47;101350.41;;;5.30;60.59
46682;BME280;34101;53.430;-2.224;2023-04-25T02:14:15;101341.55;;;5.31;60.47
46682;BME280;34101;53.430;-2.224;2023-04-25T02:16:43;101339.95;;;5.24;60.65
46682;BME280;34101;53.430;-2.224;2023-04-25T02:19:11;101337.60;;;5.18;60.83
46682;BME280;34101;53.430;-2.224;2023-04-25T02:21:39;101336.00;;;5.16;61.04
46682;BME280;34101;53.430;-2.224;2023-04-25T02:24:07;101336.82;;;5.16;61.00
46682;BME280;34101;53.430;-2.224;2023-04-25T02:26:35;101341.09;;;5.16;61.02
46682;BME280;34101;53.430;-2.224;2023-04-25T02:29:03;101339.20;;;5.12;61.38
46682;BME280;34101;53.430;-2.224;2023-04-25T02:31:30;101342.46;;;5.10;61.27
46682;BME280;34101;53.430;-2.224;2023-04-25T02:33:58;101340.30;;;5.10;61.38
46682;BME280;34101;53.430;-2.224;2023-04-25T02:36:25;101339.17;;;5.12;61.37
46682;BME280;34101;53.430;-2.224;2023-04-25T02:38:52;101337.60;;;5.11;61.27
46682;BME280;34101;53.430;-2.224;2023-04-25T02:41:21;101338.52;;;5.13;61.35
46682;BME280;34101;53.430;-2.224;2023-04-25T02:43:49;101339.23;;;5.16;61.35
46682;BME280;34101;53.430;-2.224;2023-04-25T02:46:16;101338.16;;;5.23;61.01
46682;BME280;34101;53.430;-2.224;2023-04-25T02:48:43;101342.51;;;5.11;61.17
46682;BME280;34101;53.430;-2.224;2023-04-25T02:51:11;101347.50;;;5.20;61.00
46682;BME280;34101;53.430;-2.224;2023-04-25T02:53:39;101349.93;;;5.30;60.99
46682;BME280;34101;53.430;-2.224;2023-04-25T02:56:06;101351.69;;;5.26;60.85
46682;BME280;34101;53.430;-2.224;2023-04-25T02:58:34;101348.44;;;5.21;60.91
46682;BME280;34101;53.430;-2.224;2023-04-25T03:01:02;101344.90;;;5.12;60.94
46682;BME280;34101;53.430;-2.224;2023-04-25T03:03:29;101344.16;;;5.05;61.20
46682;BME280;34101;53.430;-2.224;2023-04-25T03:05:58;101343.09;;;5.00;61.60
46682;BME280;34101;53.430;-2.224;2023-04-25T03:08:26;101339.77;;;4.96;61.71
46682;BME280;34101;53.430;-2.224;2023-04-25T03:10:53;101334.10;;;4.90;61.87
46682;BME280;34101;53.430;-2.224;2023-04-25T03:13:22;101339.19;;;4.84;62.18
46682;BME280;34101;53.430;-2.224;2023-04-25T03:15:50;101344.96;;;4.77;62.19
46682;BME280;34101;53.430;-2.224;2023-04-25T03:18:17;101351.52;;;4.68;62.51
46682;BME280;34101;53.430;-2.224;2023-04-25T03:20:44;101353.45;;;4.60;62.79
46682;BME280;34101;53.430;-2.224;2023-04-25T03:23:12;101353.35;;;4.60;63.03
46682;BME280;34101;53.430;-2.224;2023-04-25T03:25:39;101352.65;;;4.64;62.88
46682;BME280;34101;53.430;-2.224;2023-04-25T03:28:07;101354.54;;;4.57;62.91
46682;BME280;34101;53.430;-2.224;2023-04-25T03:30:34;101352.49;;;4.54;63.10
46682;BME280;34101;53.430;-2.224;2023-04-25T03:33:02;101351.75;;;4.53;63.13
46682;BME280;34101;53.430;-2.224;2023-04-25T03:35:30;101352.71;;;4.49;63.20
46682;BME280;34101;53.430;-2.224;2023-04-25T03:37:57;101351.89;;;4.49;63.33
46682;BME280;34101;53.430;-2.224;2023-04-25T03:40:24;101350.57;;;4.49;63.33
46682;BME280;34101;53.430;-2.224;2023-04-25T03:42:57;101353.36;;;4.47;63.36
46682;BME280;34101;53.430;-2.224;2023-04-25T03:45:25;101355.34;;;4.48;62.82
46682;BME280;34101;53.430;-2.224;2023-04-25T03:47:52;101362.86;;;4.33;63.57
46682;BME280;34101;53.430;-2.224;2023-04-25T03:50:20;101367.50;;;4.35;63.53
46682;BME280;34101;53.430;-2.224;2023-04-25T03:52:47;101359.81;;;4.35;63.42
46682;BME280;34101;53.430;-2.224;2023-04-25T03:55:15;101360.23;;;4.27;63.66
46682;BME280;34101;53.430;-2.224;2023-04-25T03:57:42;101359.04;;;4.23;63.75
46682;BME280;34101;53.430;-2.224;2023-04-25T04:00:11;101358.12;;;4.20;64.00
46682;BME280;34101;53.430;-2.224;2023-04-25T04:02:38;101362.61;;;4.19;63.94
46682;BME280;34101;53.430;-2.224;2023-04-25T04:05:06;101366.96;;;4.19;63.99
46682;BME280;34101;53.430;-2.224;2023-04-25T04:07:33;101367.16;;;4.17;63.99
46682;BME280;34101;53.430;-2.224;2023-04-25T04:10:00;101371.40;;;4.16;64.07
46682;BME280;34101;53.430;-2.224;2023-04-25T04:12:28;101378.54;;;4.07;63.94
46682;BME280;34101;53.430;-2.224;2023-04-25T04:14:55;101380.45;;;4.03;64.19
46682;BME280;34101;53.430;-2.224;2023-04-25T04:17:22;101384.96;;;4.04;64.06
46682;BME280;34101;53.430;-2.224;2023-04-25T04:19:50;101382.86;;;4.06;64.05
46682;BME280;34101;53.430;-2.224;2023-04-25T04:22:17;101379.24;;;4.06;64.05
46682;BME280;34101;53.430;-2.224;2023-04-25T04:24:45;101380.04;;;3.98;64.13
46682;BME280;34101;53.430;-2.224;2023-04-25T04:27:13;101380.59;;;3.90;64.50
46682;BME280;34101;53.430;-2.224;2023-04-25T04:29:40;101385.31;;;3.92;64.67
46682;BME280;34101;53.430;-2.224;2023-04-25T04:32:07;101385.19;;;3.88;64.75
46682;BME280;34101;53.430;-2.224;2023-04-25T04:34:35;101388.66;;;3.89;64.91
46682;BME280;34101;53.430;-2.224;2023-04-25T04:37:03;101390.99;;;3.88;64.95
46682;BME280;34101;53.430;-2.224;2023-04-25T04:39:30;101388.87;;;3.88;64.64
46682;BME280;34101;53.430;-2.224;2023-04-25T04:41:58;101390.69;;;3.81;65.09
46682;BME280;34101;53.430;-2.224;2023-04-25T04:44:26;101393.60;;;3.76;64.89
46682;BME280;34101;53.430;-2.224;2023-04-25T04:46:53;101393.12;;;3.72;65.48
46682;BME280;34101;53.430;-2.224;2023-04-25T04:49:22;101389.72;;;3.74;65.41
46682;BME280;34101;53.430;-2.224;2023-04-25T04:51:49;101393.45;;;3.75;65.35
46682;BME280;34101;53.430;-2.224;2023-04-25T04:54:16;101391.85;;;3.73;65.39
46682;BME280;34101;53.430;-2.224;2023-04-25T04:56:44;101384.22;;;3.70;65.51
46682;BME280;34101;53.430;-2.224;2023-04-25T04:59:11;101384.65;;;3.72;65.62
46682;BME280;34101;53.430;-2.224;2023-04-25T05:01:39;101392.89;;;3.73;65.62
46682;BME280;34101;53.430;-2.224;2023-04-25T05:04:06;101398.95;;;3.69;65.66
46682;BME280;34101;53.430;-2.224;2023-04-25T05:06:33;101401.72;;;3.72;65.85
46682;BME280;34101;53.430;-2.224;2023-04-25T05:09:01;101404.55;;;3.73;65.77
46682;BME280;34101;53.430;-2.224;2023-04-25T05:11:29;101408.90;;;3.75;65.76
46682;BME280;34101;53.430;-2.224;2023-04-25T05:13:56;101412.51;;;3.78;65.68
46682;BME280;34101;53.430;-2.224;2023-04-25T05:16:24;101415.62;;;3.78;65.72
46682;BME280;34101;53.430;-2.224;2023-04-25T05:18:51;101420.39;;;3.80;65.63
46682;BME280;34101;53.430;-2.224;2023-04-25T05:21:19;101416.54;;;3.80;65.59
46682;BME280;34101;53.430;-2.224;2023-04-25T05:23:46;101419.75;;;3.85;65.70
46682;BME280;34101;53.430;-2.224;2023-04-25T05:26:14;101418.48;;;3.84;65.69
46682;BME280;34101;53.430;-2.224;2023-04-25T05:28:41;101410.45;;;3.81;65.76
46682;BME280;34101;53.430;-2.224;2023-04-25T05:31:10;101411.35;;;3.81;65.83
46682;BME280;34101;53.430;-2.224;2023-04-25T05:33:37;101422.19;;;3.83;66.02
46682;BME280;34101;53.430;-2.224;2023-04-25T05:36:06;101419.40;;;3.89;65.78
46682;BME280;34101;53.430;-2.224;2023-04-25T05:38:33;101422.68;;;3.92;65.78
46682;BME280;34101;53.430;-2.224;2023-04-25T05:41:01;101424.27;;;3.94;65.57
46682;BME280;34101;53.430;-2.224;2023-04-25T05:43:28;101434.60;;;4.02;65.25
46682;BME280;34101;53.430;-2.224;2023-04-25T05:45:56;101440.14;;;3.96;65.72
46682;BME280;34101;53.430;-2.224;2023-04-25T05:48:23;101445.41;;;4.04;65.31
46682;BME280;34101;53.430;-2.224;2023-04-25T05:50:51;101441.71;;;4.05;65.40
46682;BME280;34101;53.430;-2.224;2023-04-25T05:53:19;101440.90;;;4.10;65.75
46682;BME280;34101;53.430;-2.224;2023-04-25T05:55:47;101434.57;;;4.10;65.18
46682;BME280;34101;53.430;-2.224;2023-04-25T05:58:14;101434.98;;;4.11;65.03
46682;BME280;34101;53.430;-2.224;2023-04-25T06:00:42;101438.10;;;4.19;64.99
46682;BME280;34101;53.430;-2.224;2023-04-25T06:03:09;101442.49;;;4.28;64.71
46682;BME280;34101;53.430;-2.224;2023-04-25T06:05:37;101440.22;;;4.31;64.83
46682;BME280;34101;53.430;-2.224;2023-04-25T06:08:04;101441.92;;;4.38;64.45
46682;BME280;34101;53.430;-2.224;2023-04-25T06:10:31;101445.19;;;4.38;64.12
46682;BME280;34101;53.430;-2.224;2023-04-25T06:12:59;101445.15;;;4.44;64.51
46682;BME280;34101;53.430;-2.224;2023-04-25T06:15:26;101444.00;;;4.50;64.02
46682;BME280;34101;53.430;-2.224;2023-04-25T06:17:54;101451.27;;;4.41;64.94
46682;BME280;34101;53.430;-2.224;2023-04-25T06:20:21;101453.24;;;4.55;64.85
46682;BME280;34101;53.430;-2.224;2023-04-25T06:22:49;101456.21;;;4.60;64.69
46682;BME280;34101;53.430;-2.224;2023-04-25T06:25:21;101456.78;;;4.71;64.54
46682;BME280;34101;53.430;-2.224;2023-04-25T06:27:49;101458.17;;;4.79;64.23
46682;BME280;34101;53.430;-2.224;2023-04-25T06:30:22;101458.56;;;4.90;64.00
46682;BME280;34101;53.430;-2.224;2023-04-25T06:32:49;101458.26;;;4.99;63.81
46682;BME280;34101;53.430;-2.224;2023-04-25T06:35:17;101456.14;;;5.11;64.05
46682;BME280;34101;53.430;-2.224;2023-04-25T06:37:44;101453.20;;;5.26;63.59
46682;BME280;34101;53.430;-2.224;2023-04-25T06:40:11;101451.71;;;5.37;63.14
46682;BME280;34101;53.430;-2.224;2023-04-25T06:42:39;101448.95;;;5.49;62.72
46682;BME280;34101;53.430;-2.224;2023-04-25T06:45:07;101452.43;;;5.59;62.29
46682;BME280;34101;53.430;-2.224;2023-04-25T06:47:35;101457.87;;;5.67;61.77
46682;BME280;34101;53.430;-2.224;2023-04-25T06:50:02;101456.96;;;5.74;61.29
46682;BME280;34101;53.430;-2.224;2023-04-25T06:52:29;101460.78;;;5.81;61.13
46682;BME280;34101;53.430;-2.224;2023-04-25T06:54:57;101463.28;;;5.89;61.08
46682;BME280;34101;53.430;-2.224;2023-04-25T06:57:24;101466.32;;;5.97;60.78
46682;BME280;34101;53.430;-2.224;2023-04-25T06:59:51;101466.93;;;6.03;60.76
46682;BME280;34101;53.430;-2.224;2023-04-25T07:02:24;101469.70;;;6.04;60.51
46682;BME280;34101;53.430;-2.224;2023-04-25T07:04:50;101469.15;;;6.12;60.14
46682;BME280;34101;53.430;-2.224;2023-04-25T07:07:18;101472.89;;;6.25;60.09
46682;BME280;34101;53.430;-2.224;2023-04-25T07:09:46;101472.94;;;6.11;60.76
46682;BME280;34101;53.430;-2.224;2023-04-25T07:12:13;101476.05;;;6.29;59.91
46682;BME280;34101;53.430;-2.224;2023-04-25T07:14:41;101479.31;;;6.30;59.90
46682;BME280;34101;53.430;-2.224;2023-04-25T07:17:08;101479.44;;;6.35;59.75
46682;BME280;34101;53.430;-2.224;2023-04-25T07:19:35;101478.71;;;6.35;59.15
46682;BME280;34101;53.430;-2.224;2023-04-25T07:22:03;101478.48;;;6.61;58.58
46682;BME280;34101;53.430;-2.224;2023-04-25T07:24:31;101479.02;;;6.72;57.90
46682;BME280;34101;53.430;-2.224;2023-04-25T07:26:58;101481.67;;;6.86;56.87
46682;BME280;34101;53.430;-2.224;2023-04-25T07:29:26;101481.51;;;7.00;55.16
46682;BME280;34101;53.430;-2.224;2023-04-25T07:31:53;101483.15;;;7.12;54.14
46682;BME280;34101;53.430;-2.224;2023-04-25T07:34:21;101484.79;;;7.26;52.98
46682;BME280;34101;53.430;-2.224;2023-04-25T07:36:48;101484.71;;;7.35;53.07
46682;BME280;34101;53.430;-2.224;2023-04-25T07:39:16;101480.10;;;7.51;52.45
46682;BME280;34101;53.430;-2.224;2023-04-25T07:41:43;101484.69;;;7.69;51.86
46682;BME280;34101;53.430;-2.224;2023-04-25T07:44:15;101487.25;;;7.76;51.71
46682;BME280;34101;53.430;-2.224;2023-04-25T07:46:47;101490.08;;;7.94;50.93
46682;BME280;34101;53.430;-2.224;2023-04-25T07:49:15;101495.06;;;8.07;50.60
46682;BME280;34101;53.430;-2.224;2023-04-25T07:51:43;101495.21;;;8.27;50.44
46682;BME280;34101;53.430;-2.224;2023-04-25T07:54:13;101493.55;;;8.44;49.39
46682;BME280;34101;53.430;-2.224;2023-04-25T07:56:41;101496.52;;;8.49;50.54
46682;BME280;34101;53.430;-2.224;2023-04-25T07:59:08;101500.37;;;7.64;52.12
46682;BME280;34101;53.430;-2.224;2023-04-25T08:01:36;101501.03;;;7.76;52.70
46682;BME280;34101;53.430;-2.224;2023-04-25T08:04:03;101498.56;;;8.36;49.89
46682;BME280;34101;53.430;-2.224;2023-04-25T08:06:31;101495.43;;;8.75;47.79
46682;BME280;34101;53.430;-2.224;2023-04-25T08:08:58;101494.07;;;9.05;48.17
46682;BME280;34101;53.430;-2.224;2023-04-25T08:11:26;101490.45;;;9.78;46.65
46682;BME280;34101;53.430;-2.224;2023-04-25T08:13:55;101488.71;;;10.76;43.74
46682;BME280;34101;53.430;-2.224;2023-04-25T08:16:23;101488.65;;;11.76;41.80
46682;BME280;34101;53.430;-2.224;2023-04-25T08:18:51;101493.00;;;12.42;39.12
46682;BME280;34101;53.430;-2.224;2023-04-25T08:21:18;101496.04;;;11.44;37.95
46682;BME280;34101;53.430;-2.224;2023-04-25T08:23:46;101498.74;;;12.80;35.81
46682;BME280;34101;53.430;-2.224;2023-04-25T08:26:13;101500.49;;;12.71;34.31
46682;BME280;34101;53.430;-2.224;2023-04-25T08:28:41;101499.56;;;13.70;32.57
46682;BME280;34101;53.430;-2.224;2023-04-25T08:31:08;101498.32;;;14.06;31.66
46682;BME280;34101;53.430;-2.224;2023-04-25T08:33:36;101499.05;;;14.29;31.31
46682;BME280;34101;53.430;-2.224;2023-04-25T08:36:08;101498.04;;;15.19;28.57
46682;BME280;34101;53.430;-2.224;2023-04-25T08:38:36;101498.93;;;15.62;28.30
46682;BME280;34101;53.430;-2.224;2023-04-25T08:41:03;101497.02;;;16.03;26.77
46682;BME280;34101;53.430;-2.224;2023-04-25T08:43:31;101495.58;;;16.69;26.93
46682;BME280;34101;53.430;-2.224;2023-04-25T08:46:00;101499.78;;;17.10;24.18
46682;BME280;34101;53.430;-2.224;2023-04-25T08:48:28;101506.58;;;17.35;24.62
46682;BME280;34101;53.430;-2.224;2023-04-25T08:50:56;101506.22;;;17.97;24.26
46682;BME280;34101;53.430;-2.224;2023-04-25T08:53:27;101506.07;;;18.13;22.93
46682;BME280;34101;53.430;-2.224;2023-04-25T08:55:55;101509.72;;;18.28;23.60
46682;BME280;34101;53.430;-2.224;2023-04-25T08:58:23;101519.33;;;16.61;26.39
46682;BME280;34101;53.430;-2.224;2023-04-25T09:00:51;101513.47;;;16.90;25.27
46682;BME280;34101;53.430;-2.224;2023-04-25T09:03:19;101513.43;;;16.54;26.65
46682;BME280;34101;53.430;-2.224;2023-04-25T09:05:46;101517.45;;;17.38;24.72
46682;BME280;34101;53.430;-2.224;2023-04-25T09:08:14;101516.66;;;15.35;27.53
46682;BME280;34101;53.430;-2.224;2023-04-25T09:10:41;101518.53;;;16.91;25.04
46682;BME280;34101;53.430;-2.224;2023-04-25T09:13:10;101513.72;;;18.67;23.77
46682;BME280;34101;53.430;-2.224;2023-04-25T09:15:48;101517.58;;;17.67;23.97
46682;BME280;34101;53.430;-2.224;2023-04-25T09:18:23;101516.35;;;19.22;23.15
46682;BME280;34101;53.430;-2.224;2023-04-25T09:20:51;101520.91;;;16.84;25.37
46682;BME280;34101;53.430;-2.224;2023-04-25T09:23:20;101519.53;;;17.73;24.63
46682;BME280;34101;53.430;-2.224;2023-04-25T09:25:48;101520.83;;;18.93;23.78
46682;BME280;34101;53.430;-2.224;2023-04-25T09:28:15;101521.03;;;18.44;23.74
46682;BME280;34101;53.430;-2.224;2023-04-25T09:30:46;101520.98;;;17.85;24.72
46682;BME280;34101;53.430;-2.224;2023-04-25T09:33:13;101517.05;;;17.73;24.12
46682;BME280;34101;53.430;-2.224;2023-04-25T09:35:43;101513.55;;;18.30;23.60
46682;BME280;34101;53.430;-2.224;2023-04-25T09:38:12;101513.69;;;18.12;23.71
46682;BME280;34101;53.430;-2.224;2023-04-25T09:40:41;101520.19;;;16.53;25.45
46682;BME280;34101;53.430;-2.224;2023-04-25T09:43:10;101514.72;;;16.03;26.46
46682;BME280;34101;53.430;-2.224;2023-04-25T09:45:42;101517.68;;;16.33;26.46
46682;BME280;34101;53.430;-2.224;2023-04-25T09:48:10;101514.57;;;17.29;25.35
46682;BME280;34101;53.430;-2.224;2023-04-25T09:50:37;101512.62;;;17.65;25.80
46682;BME280;34101;53.430;-2.224;2023-04-25T09:53:05;101509.30;;;17.99;23.94
46682;BME280;34101;53.430;-2.224;2023-04-25T09:55:34;101515.17;;;16.66;26.14
46682;BME280;34101;53.430;-2.224;2023-04-25T09:58:05;101516.10;;;17.39;25.07
46682;BME280;34101;53.430;-2.224;2023-04-25T10:00:33;101514.01;;;18.74;24.05
46682;BME280;34101;53.430;-2.224;2023-04-25T10:03:01;101513.92;;;18.08;24.21
46682;BME280;34101;53.430;-2.224;2023-04-25T10:05:30;101519.98;;;16.84;25.15
46682;BME280;34101;53.430;-2.224;2023-04-25T10:08:01;101525.74;;;16.37;26.06
46682;BME280;34101;53.430;-2.224;2023-04-25T10:10:30;101520.10;;;14.79;27.56
46682;BME280;34101;53.430;-2.224;2023-04-25T10:12:57;101524.48;;;14.97;28.01
46682;BME280;34101;53.430;-2.224;2023-04-25T10:15:24;101526.43;;;16.59;25.77
46682;BME280;34101;53.430;-2.224;2023-04-25T10:17:52;101516.74;;;15.05;27.13
46682;BME280;34101;53.430;-2.224;2023-04-25T10:20:22;101523.04;;;16.15;25.93
46682;BME280;34101;53.430;-2.224;2023-04-25T10:22:51;101521.25;;;16.16;25.72
46682;BME280;34101;53.430;-2.224;2023-04-25T10:25:20;101514.44;;;15.93;26.58
46682;BME280;34101;53.430;-2.224;2023-04-25T10:27:50;101515.01;;;15.74;26.15
46682;BME280;34101;53.430;-2.224;2023-04-25T10:30:18;101517.72;;;15.64;26.51
46682;BME280;34101;53.430;-2.224;2023-04-25T10:32:46;101515.97;;;16.58;26.10
46682;BME280;34101;53.430;-2.224;2023-04-25T10:35:15;101511.21;;;17.23;23.51
46682;BME280;34101;53.430;-2.224;2023-04-25T10:38:00;101513.32;;;16.76;23.25
46682;BME280;34101;53.430;-2.224;2023-04-25T10:40:28;101511.08;;;16.79;23.97
46682;BME280;34101;53.430;-2.224;2023-04-25T10:42:55;101505.53;;;17.80;22.75
46682;BME280;34101;53.430;-2.224;2023-04-25T10:45:22;101506.47;;;18.03;22.73
46682;BME280;34101;53.430;-2.224;2023-04-25T10:47:50;101502.36;;;18.35;23.17
46682;BME280;34101;53.430;-2.224;2023-04-25T10:50:17;101499.71;;;18.06;22.67
46682;BME280;34101;53.430;-2.224;2023-04-25T10:52:45;101502.17;;;17.66;23.72
46682;BME280;34101;53.430;-2.224;2023-04-25T10:55:12;101507.43;;;16.86;24.18
46682;BME280;34101;53.430;-2.224;2023-04-25T10:57:41;101509.73;;;16.23;24.78
46682;BME280;34101;53.430;-2.224;2023-04-25T11:00:11;101508.34;;;15.45;26.03
46682;BME280;34101;53.430;-2.224;2023-04-25T11:02:41;101508.29;;;15.91;25.64
46682;BME280;34101;53.430;-2.224;2023-04-25T11:05:09;101507.20;;;17.47;23.67
46682;BME280;34101;53.430;-2.224;2023-04-25T11:07:43;101504.74;;;17.53;22.90
46682;BME280;34101;53.430;-2.224;2023-04-25T11:10:12;101502.26;;;16.42;23.53
46682;BME280;34101;53.430;-2.224;2023-04-25T11:12:41;101507.22;;;16.39;24.96
46682;BME280;34101;53.430;-2.224;2023-04-25T11:15:08;101504.95;;;16.04;24.89
46682;BME280;34101;53.430;-2.224;2023-04-25T11:17:35;101499.62;;;16.61;24.08
46682;BME280;34101;53.430;-2.224;2023-04-25T11:20:03;101499.04;;;16.79;24.40
46682;BME280;34101;53.430;-2.224;2023-04-25T11:22:31;101491.01;;;17.49;23.37
46682;BME280;34101;53.430;-2.224;2023-04-25T11:25:05;101490.65;;;17.62;23.60
46682;BME280;34101;53.430;-2.224;2023-04-25T11:27:32;101489.80;;;17.66;23.50
46682;BME280;34101;53.430;-2.224;2023-04-25T11:30:10;101494.99;;;17.24;23.53
46682;BME280;34101;53.430;-2.224;2023-04-25T11:32:39;101493.63;;;16.98;23.94
46682;BME280;34101;53.430;-2.224;2023-04-25T11:35:07;101495.27;;;16.85;23.91
46682;BME280;34101;53.430;-2.224;2023-04-25T11:37:34;101495.84;;;16.72;24.35
46682;BME280;34101;53.430;-2.224;2023-04-25T11:40:02;101493.16;;;16.64;23.96
46682;BME280;34101;53.430;-2.224;2023-04-25T11:42:30;101488.95;;;16.56;23.54
46682;BME280;34101;53.430;-2.224;2023-04-25T11:44:58;101481.39;;;17.85;22.77
46682;BME280;34101;53.430;-2.224;2023-04-25T11:47:29;101476.38;;;18.27;21.79
46682;BME280;34101;53.430;-2.224;2023-04-25T11:49:58;101473.54;;;18.39;20.94
46682;BME280;34101;53.430;-2.224;2023-04-25T11:52:36;101472.85;;;18.05;22.06
46682;BME280;34101;53.430;-2.224;2023-04-25T11:55:05;101474.68;;;17.62;22.36
46682;BME280;34101;53.430;-2.224;2023-04-25T11:57:33;101472.15;;;17.42;23.29
46682;BME280;34101;53.430;-2.224;2023-04-25T12:00:10;101472.13;;;17.50;22.89
46682;BME280;34101;53.430;-2.224;2023-04-25T12:02:41;101469.56;;;17.43;23.57
46682;BME280;34101;53.430;-2.224;2023-04-25T12:05:09;101473.04;;;17.00;23.96
46682;BME280;34101;53.430;-2.224;2023-04-25T12:07:42;101477.68;;;16.63;24.91
46682;BME280;34101;53.430;-2.224;2023-04-25T12:10:11;101474.87;;;16.77;23.95
46682;BME280;34101;53.430;-2.224;2023-04-25T12:12:42;101475.40;;;16.13;24.61
46682;BME280;34101;53.430;-2.224;2023-04-25T12:15:11;101473.65;;;16.78;25.45
46682;BME280;34101;53.430;-2.224;2023-04-25T12:17:39;101470.71;;;17.72;23.45
46682;BME280;34101;53.430;-2.224;2023-04-25T12:20:08;101473.75;;;17.51;25.59
46682;BME280;34101;53.430;-2.224;2023-04-25T12:22:36;101471.63;;;16.66;25.52
46682;BME280;34101;53.430;-2.224;2023-04-25T12:25:04;101478.71;;;15.87;26.11
46682;BME280;34101;53.430;-2.224;2023-04-25T12:27:32;101478.71;;;16.61;24.62
46682;BME280;34101;53.430;-2.224;2023-04-25T12:29:59;101478.01;;;16.32;25.01
46682;BME280;34101;53.430;-2.224;2023-04-25T12:32:27;101478.55;;;15.85;26.19
46682;BME280;34101;53.430;-2.224;2023-04-25T12:34:55;101480.63;;;16.04;25.98
46682;BME280;34101;53.430;-2.224;2023-04-25T12:37:23;101475.64;;;15.54;26.56
46682;BME280;34101;53.430;-2.224;2023-04-25T12:39:50;101475.06;;;16.31;26.14
46682;BME280;34101;53.430;-2.224;2023-04-25T12:42:17;101470.15;;;16.48;24.75
46682;BME280;34101;53.430;-2.224;2023-04-25T12:44:45;101473.96;;;16.52;25.13
46682;BME280;34101;53.430;-2.224;2023-04-25T12:47:12;101474.34;;;16.83;25.30
46682;BME280;34101;53.430;-2.224;2023-04-25T12:49:41;101472.88;;;17.12;24.08